Time;durP1;ratioP1;P1;durP2;ratioP2;P2;SDS_P1;SDS_P2;PMS_P1;PMS_P2;Temp;Humidity;BMP_temperature;BMP_pressure;BME280_temperature;BME280_humidity;BME280_pressure;Samples;Min_cycle;Max_cycle;Signal;HPM_P1;HPM_P2
2023/08/05 00:00:29;;;;;;;23.60;9.68;;;;;;;;;;4969505;28;20049;-61
2023/08/05 00:02:55;;;;;;;22.38;9.75;;;;;;;;;;4973596;28;20038;-61
2023/08/05 00:05:21;;;;;;;21.13;8.93;;;;;;;;;;4971687;28;20506;-61
2023/08/05 00:07:50;;;;;;;20.83;9.63;;;;;;;;;;4971073;28;20406;-61
2023/08/05 00:10:16;;;;;;;19.90;9.60;;;;;;;;;;4969894;28;20047;-61
2023/08/05 00:12:42;;;;;;;21.20;9.75;;;;;;;;;;4965637;28;20423;-61
2023/08/05 00:15:09;;;;;;;20.25;9.15;;;;;;;;;;4967628;28;20062;-61
2023/08/05 00:17:35;;;;;;;27.67;9.85;;;;;;;;;;4965751;28;20039;-61
2023/08/05 00:20:01;;;;;;;21.10;8.80;;;;;;;;;;4971909;28;20388;-61
2023/08/05 00:22:27;;;;;;;24.17;9.48;;;;;;;;;;4969294;28;20053;-61
2023/08/05 00:24:54;;;;;;;23.25;9.90;;;;;;;;;;4969032;28;20057;-61
2023/08/05 00:27:20;;;;;;;23.77;10.30;;;;;;;;;;4969281;28;20042;-61
2023/08/05 00:29:46;;;;;;;21.15;9.55;;;;;;;;;;4964169;28;20055;-61
2023/08/05 00:32:12;;;;;;;20.13;9.25;;;;;;;;;;4966003;28;20038;-61
2023/08/05 00:34:39;;;;;;;20.73;9.55;;;;;;;;;;4965221;28;20059;-61
2023/08/05 00:37:05;;;;;;;17.92;9.35;;;;;;;;;;4968883;28;20035;-61
2023/08/05 00:39:31;;;;;;;23.98;10.45;;;;;;;;;;4967916;28;20035;-61
2023/08/05 00:41:57;;;;;;;23.48;10.60;;;;;;;;;;4966906;28;20053;-61
2023/08/05 00:44:23;;;;;;;20.60;9.70;;;;;;;;;;4967407;28;20059;-61
2023/08/05 00:46:51;;;;;;;23.85;9.82;;;;;;;;;;4967508;28;20042;-60
2023/08/05 00:49:18;;;;;;;20.73;9.82;;;;;;;;;;4970217;28;20035;-60
2023/08/05 00:51:44;;;;;;;19.80;10.00;;;;;;;;;;4984630;28;20043;-60
2023/08/05 00:54:11;;;;;;;21.88;9.55;;;;;;;;;;4972509;28;20444;-60
2023/08/05 00:56:37;;;;;;;20.98;9.18;;;;;;;;;;4968921;28;20039;-60
2023/08/05 00:59:03;;;;;;;23.75;9.75;;;;;;;;;;4967804;28;20046;-60
2023/08/05 01:01:29;;;;;;;21.60;9.02;;;;;;;;;;4965479;28;20450;-60
2023/08/05 01:03:55;;;;;;;18.83;9.32;;;;;;;;;;4968354;28;20051;-60
2023/08/05 01:06:23;;;;;;;19.70;9.50;;;;;;;;;;4967816;28;20053;-60
2023/08/05 01:08:50;;;;;;;19.38;9.80;;;;;;;;;;4969995;28;20030;-60
2023/08/05 01:11:16;;;;;;;22.92;9.95;;;;;;;;;;4970280;28;20051;-60
2023/08/05 01:13:42;;;;;;;23.58;10.30;;;;;;;;;;4968200;28;20065;-60
2023/08/05 01:16:08;;;;;;;24.10;9.45;;;;;;;;;;4967003;28;20043;-60
2023/08/05 01:18:37;;;;;;;25.27;10.32;;;;;;;;;;4968191;28;20038;-60
2023/08/05 01:21:10;;;;;;;27.33;9.60;;;;;;;;;;4965722;28;20034;-60
2023/08/05 01:23:56;;;;;;;25.38;10.15;;;;;;;;;;4967856;28;20046;-60
2023/08/05 01:26:23;;;;;;;17.65;8.95;;;;;;;;;;4949542;28;20038;-60
2023/08/05 01:28:52;;;;;;;20.30;9.00;;;;;;;;;;4968306;28;20533;-60
2023/08/05 01:31:18;;;;;;;20.85;9.02;;;;;;;;;;4967348;28;20051;-60
2023/08/05 01:33:47;;;;;;;22.52;10.13;;;;;;;;;;4980544;28;20038;-60
2023/08/05 01:36:20;;;;;;;20.50;9.80;;;;;;;;;;4951853;28;20085;-60
2023/08/05 01:38:47;;;;;;;25.25;8.90;;;;;;;;;;4967272;28;20039;-60
2023/08/05 01:41:15;;;;;;;21.60;9.68;;;;;;;;;;4970366;28;20094;-60
2023/08/05 01:43:41;;;;;;;20.25;9.63;;;;;;;;;;4966221;28;20041;-61
2023/08/05 01:46:07;;;;;;;23.40;10.13;;;;;;;;;;4970244;28;20117;-60
2023/08/05 01:48:33;;;;;;;22.92;10.38;;;;;;;;;;4967086;28;20058;-60
2023/08/05 01:51:00;;;;;;;21.73;9.40;;;;;;;;;;4970385;28;20035;-60
2023/08/05 01:53:26;;;;;;;21.17;9.85;;;;;;;;;;4969451;28;20041;-60
2023/08/05 01:55:52;;;;;;;22.63;10.55;;;;;;;;;;4971412;28;20479;-60
2023/08/05 01:58:19;;;;;;;19.98;9.40;;;;;;;;;;4968946;28;20047;-60
2023/08/05 02:00:52;;;;;;;24.35;9.80;;;;;;;;;;4968434;28;20066;-60
2023/08/05 02:03:19;;;;;;;19.00;9.32;;;;;;;;;;4982494;28;20054;-61
2023/08/05 02:05:45;;;;;;;21.52;9.75;;;;;;;;;;4968408;28;20043;-60
2023/08/05 02:08:12;;;;;;;21.63;9.88;;;;;;;;;;4971122;28;20605;-60
2023/08/05 02:10:39;;;;;;;26.05;9.93;;;;;;;;;;4970111;28;20071;-60
2023/08/05 02:13:05;;;;;;;25.40;10.07;;;;;;;;;;4965510;28;20053;-60
2023/08/05 02:15:32;;;;;;;23.65;9.90;;;;;;;;;;4961671;28;20037;-60
2023/08/05 02:17:58;;;;;;;21.50;10.05;;;;;;;;;;4964056;28;20047;-60
2023/08/05 02:20:24;;;;;;;22.92;9.60;;;;;;;;;;4967026;28;20491;-59
2023/08/05 02:22:52;;;;;;;21.35;9.80;;;;;;;;;;4968114;28;20045;-60
2023/08/05 02:25:18;;;;;;;23.65;9.77;;;;;;;;;;4968531;28;20042;-60
2023/08/05 02:27:44;;;;;;;19.73;8.95;;;;;;;;;;4965397;28;20061;-60
2023/08/05 02:30:10;;;;;;;17.05;8.88;;;;;;;;;;4967618;28;20450;-60
2023/08/05 02:32:37;;;;;;;16.77;8.82;;;;;;;;;;4966136;28;20422;-60
2023/08/05 02:35:03;;;;;;;19.45;9.10;;;;;;;;;;4966625;28;20450;-60
2023/08/05 02:37:29;;;;;;;17.05;8.40;;;;;;;;;;4964841;28;20057;-60
2023/08/05 02:39:56;;;;;;;17.88;8.77;;;;;;;;;;4966433;28;20046;-60
2023/08/05 02:42:22;;;;;;;21.67;8.38;;;;;;;;;;4967360;28;20053;-61
2023/08/05 02:44:50;;;;;;;18.80;8.45;;;;;;;;;;4965169;28;20043;-61
2023/08/05 02:47:16;;;;;;;19.20;8.70;;;;;;;;;;4965779;28;20043;-60
2023/08/05 02:49:42;;;;;;;18.17;9.20;;;;;;;;;;4967009;28;20051;-61
2023/08/05 02:52:08;;;;;;;16.63;7.78;;;;;;;;;;4969567;28;20049;-60
2023/08/05 02:54:34;;;;;;;18.38;8.45;;;;;;;;;;4966926;28;20050;-60
2023/08/05 02:57:00;;;;;;;17.10;8.60;;;;;;;;;;4963201;28;20031;-61
2023/08/05 02:59:28;;;;;;;16.63;8.40;;;;;;;;;;4964730;28;20053;-61
2023/08/05 03:01:54;;;;;;;18.00;7.97;;;;;;;;;;4967169;28;20410;-60
2023/08/05 03:04:20;;;;;;;15.90;7.97;;;;;;;;;;4968269;28;20061;-61
2023/08/05 03:06:47;;;;;;;17.55;8.23;;;;;;;;;;4967930;28;20047;-60
2023/08/05 03:09:13;;;;;;;18.50;9.30;;;;;;;;;;4967161;28;20042;-61
2023/08/05 03:11:40;;;;;;;21.50;8.95;;;;;;;;;;4966127;28;20070;-61
2023/08/05 03:14:07;;;;;;;18.15;9.07;;;;;;;;;;4964792;28;20038;-61
2023/08/05 03:16:33;;;;;;;15.98;8.07;;;;;;;;;;4966978;28;20042;-61
2023/08/05 03:19:04;;;;;;;19.35;8.55;;;;;;;;;;4948076;28;20043;-61
2023/08/05 03:21:31;;;;;;;21.02;8.68;;;;;;;;;;4964994;28;20038;-61
2023/08/05 03:24:01;;;;;;;21.42;9.07;;;;;;;;;;4964251;28;20047;-61
2023/08/05 03:26:29;;;;;;;13.52;7.47;;;;;;;;;;4961176;28;20055;-60
2023/08/05 03:29:00;;;;;;;16.73;8.20;;;;;;;;;;4965469;28;20041;-61
2023/08/05 03:31:27;;;;;;;16.65;8.15;;;;;;;;;;4964724;28;20410;-60
2023/08/05 03:33:53;;;;;;;18.50;7.95;;;;;;;;;;4965274;28;20042;-61
2023/08/05 03:36:20;;;;;;;17.42;8.65;;;;;;;;;;4967554;28;20047;-60
2023/08/05 03:38:46;;;;;;;19.70;8.27;;;;;;;;;;4970870;28;20038;-61
2023/08/05 03:41:12;;;;;;;16.30;8.20;;;;;;;;;;4971740;28;20050;-61
2023/08/05 03:43:38;;;;;;;20.10;8.32;;;;;;;;;;4945777;28;20046;-61
2023/08/05 03:46:04;;;;;;;17.73;8.52;;;;;;;;;;4969588;28;20410;-60
2023/08/05 03:48:30;;;;;;;19.23;8.90;;;;;;;;;;4970333;28;20043;-60
2023/08/05 03:50:56;;;;;;;16.48;8.43;;;;;;;;;;4971256;28;20034;-60
2023/08/05 03:53:22;;;;;;;19.02;8.75;;;;;;;;;;4968905;28;20054;-61
2023/08/05 03:55:49;;;;;;;17.98;7.93;;;;;;;;;;4951100;28;20054;-61
2023/08/05 03:58:19;;;;;;;17.58;8.50;;;;;;;;;;4968466;28;20046;-61
2023/08/05 04:00:48;;;;;;;14.85;7.78;;;;;;;;;;4965039;28;20062;-61
2023/08/05 04:03:14;;;;;;;17.48;8.73;;;;;;;;;;4971157;28;20046;-61
2023/08/05 04:05:42;;;;;;;17.17;8.20;;;;;;;;;;4964616;28;20068;-61
2023/08/05 04:08:08;;;;;;;19.40;9.35;;;;;;;;;;4967682;28;20034;-61
2023/08/05 04:10:36;;;;;;;16.30;7.95;;;;;;;;;;4968450;28;20050;-60
2023/08/05 04:13:03;;;;;;;18.45;8.75;;;;;;;;;;4968641;28;20663;-61
2023/08/05 04:15:33;;;;;;;20.73;8.75;;;;;;;;;;4965695;28;20031;-61
2023/08/05 04:18:00;;;;;;;18.48;8.65;;;;;;;;;;4967314;28;20031;-60
2023/08/05 04:20:30;;;;;;;18.08;8.82;;;;;;;;;;4969375;28;20478;-60
2023/08/05 04:22:56;;;;;;;18.00;9.10;;;;;;;;;;4967353;28;20038;-61
2023/08/05 04:25:22;;;;;;;20.73;8.70;;;;;;;;;;4969847;28;20039;-61
2023/08/05 04:27:48;;;;;;;21.58;9.00;;;;;;;;;;4967582;28;20063;-61
2023/08/05 04:30:14;;;;;;;16.10;8.10;;;;;;;;;;4968825;28;20054;-61
2023/08/05 04:32:40;;;;;;;19.17;8.88;;;;;;;;;;4968164;28;20038;-60
2023/08/05 04:35:07;;;;;;;17.30;8.88;;;;;;;;;;4970412;28;20502;-61
2023/08/05 04:37:33;;;;;;;24.33;9.73;;;;;;;;;;4968206;28;20087;-61
2023/08/05 04:39:59;;;;;;;19.85;8.82;;;;;;;;;;4970520;28;20510;-60
2023/08/05 04:42:25;;;;;;;20.25;9.43;;;;;;;;;;4970366;28;20042;-61
2023/08/05 04:44:52;;;;;;;23.98;9.18;;;;;;;;;;4966936;28;20035;-61
2023/08/05 04:47:18;;;;;;;19.85;9.20;;;;;;;;;;4970381;28;20066;-61
2023/08/05 04:49:44;;;;;;;17.08;8.07;;;;;;;;;;4969612;28;20039;-61
2023/08/05 04:52:12;;;;;;;22.58;10.10;;;;;;;;;;4970454;28;20106;-61
2023/08/05 04:54:39;;;;;;;19.25;9.00;;;;;;;;;;4969481;28;20417;-60
2023/08/05 04:57:06;;;;;;;17.77;9.52;;;;;;;;;;4971896;28;20043;-61
2023/08/05 04:59:33;;;;;;;16.67;8.77;;;;;;;;;;4970188;28;20023;-61
2023/08/05 05:01:59;;;;;;;22.00;9.00;;;;;;;;;;4971190;28;20035;-61
2023/08/05 05:04:25;;;;;;;19.15;8.90;;;;;;;;;;4967664;28;20038;-60
2023/08/05 05:06:51;;;;;;;18.00;8.57;;;;;;;;;;4967719;28;20490;-61
2023/08/05 05:09:18;;;;;;;20.40;9.35;;;;;;;;;;4969890;28;20495;-60
2023/08/05 05:11:44;;;;;;;21.52;9.13;;;;;;;;;;4968708;28;20039;-60
2023/08/05 05:14:10;;;;;;;18.63;9.23;;;;;;;;;;4969936;28;20027;-61
2023/08/05 05:16:36;;;;;;;20.80;9.18;;;;;;;;;;4966338;28;20041;-61
2023/08/05 05:19:02;;;;;;;19.77;9.55;;;;;;;;;;4969385;28;20037;-60
2023/08/05 05:21:30;;;;;;;20.48;9.60;;;;;;;;;;4967474;28;20050;-60
2023/08/05 05:23:56;;;;;;;22.52;8.77;;;;;;;;;;4969264;28;20476;-60
2023/08/05 05:26:22;;;;;;;19.35;9.55;;;;;;;;;;4967428;28;20046;-61
2023/08/05 05:28:48;;;;;;;21.15;9.60;;;;;;;;;;4968102;28;20061;-61
2023/08/05 05:31:14;;;;;;;27.45;9.45;;;;;;;;;;4968758;28;20041;-61
2023/08/05 05:33:40;;;;;;;23.30;11.18;;;;;;;;;;4966738;28;20035;-60
2023/08/05 05:36:06;;;;;;;21.42;9.55;;;;;;;;;;4968957;28;20046;-61
2023/08/05 05:38:32;;;;;;;25.88;9.70;;;;;;;;;;4967292;28;20053;-61
2023/08/05 05:40:58;;;;;;;21.00;9.48;;;;;;;;;;4969694;28;20055;-60
2023/08/05 05:43:24;;;;;;;17.90;8.10;;;;;;;;;;4967241;28;20046;-60
2023/08/05 05:45:53;;;;;;;20.98;8.85;;;;;;;;;;4967984;28;20518;-61
2023/08/05 05:48:20;;;;;;;18.55;8.52;;;;;;;;;;4968093;28;20042;-61
2023/08/05 05:50:46;;;;;;;18.38;8.60;;;;;;;;;;4968764;28;20043;-61
2023/08/05 05:53:16;;;;;;;21.70;9.93;;;;;;;;;;4971103;28;20030;-61
2023/08/05 05:55:45;;;;;;;20.40;9.88;;;;;;;;;;4968037;28;20050;-61
2023/08/05 05:58:11;;;;;;;21.23;9.45;;;;;;;;;;4969426;28;20043;-61
2023/08/05 06:00:39;;;;;;;24.05;9.88;;;;;;;;;;4968887;28;20049;-60
2023/08/05 06:03:08;;;;;;;21.50;9.27;;;;;;;;;;4970932;28;20038;-61
2023/08/05 06:05:34;;;;;;;20.70;9.25;;;;;;;;;;4968589;28;20407;-61
2023/08/05 06:08:00;;;;;;;19.98;9.02;;;;;;;;;;4969939;28;20038;-59
2023/08/05 06:10:26;;;;;;;21.83;9.68;;;;;;;;;;4964522;28;20047;-61
2023/08/05 06:12:52;;;;;;;22.13;9.55;;;;;;;;;;4968949;28;20042;-60
2023/08/05 06:15:18;;;;;;;21.35;10.43;;;;;;;;;;4968204;28;20062;-61
2023/08/05 06:17:46;;;;;;;24.27;9.68;;;;;;;;;;4968552;28;20046;-61
2023/08/05 06:20:12;;;;;;;21.25;10.63;;;;;;;;;;4969371;28;20050;-63
2023/08/05 06:22:38;;;;;;;19.88;10.13;;;;;;;;;;4964936;28;20065;-61
2023/08/05 06:25:04;;;;;;;16.23;8.85;;;;;;;;;;4969048;28;20529;-61
2023/08/05 06:27:30;;;;;;;21.13;9.25;;;;;;;;;;4965262;28;20042;-60
2023/08/05 06:29:57;;;;;;;21.30;9.13;;;;;;;;;;4967542;28;20050;-61
2023/08/05 06:32:23;;;;;;;20.42;9.65;;;;;;;;;;4966770;28;20034;-61
2023/08/05 06:34:49;;;;;;;22.02;9.80;;;;;;;;;;4966854;28;20051;-61
2023/08/05 06:37:15;;;;;;;26.63;9.40;;;;;;;;;;4972300;28;20413;-61
2023/08/05 06:39:41;;;;;;;20.70;9.13;;;;;;;;;;4969561;28;20062;-61
2023/08/05 06:42:07;;;;;;;21.10;10.20;;;;;;;;;;4966706;28;20058;-61
2023/08/05 06:44:37;;;;;;;25.80;10.52;;;;;;;;;;4969291;28;20042;-62
2023/08/05 06:47:05;;;;;;;19.38;9.93;;;;;;;;;;4969955;28;20039;-60
2023/08/05 06:49:32;;;;;;;20.45;9.68;;;;;;;;;;4968328;28;20050;-60
2023/08/05 06:51:58;;;;;;;20.75;9.48;;;;;;;;;;4970293;28;20552;-60
2023/08/05 06:54:24;;;;;;;27.33;11.20;;;;;;;;;;4967293;28;20695;-60
2023/08/05 06:56:51;;;;;;;20.40;10.40;;;;;;;;;;4968895;28;20041;-61
2023/08/05 06:59:17;;;;;;;25.45;10.55;;;;;;;;;;4949722;28;20039;-60
2023/08/05 07:01:43;;;;;;;21.20;9.88;;;;;;;;;;4968186;28;20061;-61
2023/08/05 07:04:09;;;;;;;18.83;9.85;;;;;;;;;;4969305;28;20034;-60
2023/08/05 07:06:35;;;;;;;18.55;9.40;;;;;;;;;;4966265;28;20027;-60
2023/08/05 07:09:03;;;;;;;18.17;10.95;;;;;;;;;;4969380;28;20046;-61
2023/08/05 07:11:30;;;;;;;18.05;9.68;;;;;;;;;;4970617;28;20061;-61
2023/08/05 07:13:56;;;;;;;19.63;10.02;;;;;;;;;;4970434;28;20046;-61
2023/08/05 07:16:22;;;;;;;21.05;10.57;;;;;;;;;;4970494;28;20054;-61
2023/08/05 07:18:48;;;;;;;21.45;10.70;;;;;;;;;;4972550;28;20051;-61
2023/08/05 07:21:17;;;;;;;20.80;9.38;;;;;;;;;;4971647;28;20657;-61
2023/08/05 07:23:43;;;;;;;18.65;9.48;;;;;;;;;;4968657;28;20039;-60
2023/08/05 07:26:09;;;;;;;17.88;9.27;;;;;;;;;;4970531;28;20046;-60
2023/08/05 07:28:35;;;;;;;18.20;9.57;;;;;;;;;;4970336;28;20055;-60
2023/08/05 07:31:07;;;;;;;17.10;8.90;;;;;;;;;;4971996;28;20062;-60
2023/08/05 07:33:33;;;;;;;17.13;9.43;;;;;;;;;;4967327;28;20494;-60
2023/08/05 07:36:22;;;;;;;15.60;8.70;;;;;;;;;;4971808;28;20042;-59
2023/08/05 07:38:50;;;;;;;20.95;9.48;;;;;;;;;;4973193;28;20418;-61
2023/08/05 07:41:16;;;;;;;19.77;9.77;;;;;;;;;;4974462;28;20035;-61
2023/08/05 07:43:43;;;;;;;17.90;9.40;;;;;;;;;;4969147;28;20042;-61
2023/08/05 07:46:13;;;;;;;17.70;9.57;;;;;;;;;;4969375;28;20035;-61
2023/08/05 07:48:39;;;;;;;18.70;9.57;;;;;;;;;;4968645;28;20058;-61
2023/08/05 07:51:06;;;;;;;15.27;8.75;;;;;;;;;;4970538;28;20426;-61
2023/08/05 07:53:35;;;;;;;16.27;8.93;;;;;;;;;;4970514;28;20038;-61
2023/08/05 07:56:14;;;;;;;14.65;8.70;;;;;;;;;;4970061;28;20035;-61
2023/08/05 07:58:42;;;;;;;13.50;8.57;;;;;;;;;;4968237;28;20061;-61
2023/08/05 08:01:08;;;;;;;15.65;9.10;;;;;;;;;;4975703;28;20034;-61
2023/08/05 08:03:35;;;;;;;15.88;8.25;;;;;;;;;;4974128;28;20054;-61
2023/08/05 08:06:01;;;;;;;16.20;8.52;;;;;;;;;;4973721;28;20423;-61
2023/08/05 08:08:27;;;;;;;19.23;9.77;;;;;;;;;;4968227;28;20045;-61
2023/08/05 08:10:53;;;;;;;20.67;9.82;;;;;;;;;;4970761;28;20058;-61
2023/08/05 08:13:19;;;;;;;17.15;9.35;;;;;;;;;;4970408;28;20038;-62
2023/08/05 08:15:45;;;;;;;16.33;9.27;;;;;;;;;;4970884;28;20050;-61
2023/08/05 08:18:11;;;;;;;15.68;7.55;;;;;;;;;;4969820;28;20046;-61
2023/08/05 08:20:37;;;;;;;14.05;8.88;;;;;;;;;;4967944;28;20034;-61
2023/08/05 08:23:04;;;;;;;18.98;9.68;;;;;;;;;;4969020;28;20046;-61
2023/08/05 08:25:30;;;;;;;13.85;8.43;;;;;;;;;;4969177;28;20055;-62
2023/08/05 08:27:56;;;;;;;17.17;8.05;;;;;;;;;;4971480;28;20398;-61
2023/08/05 08:30:22;;;;;;;13.77;8.57;;;;;;;;;;4968338;28;20042;-61
2023/08/05 08:32:48;;;;;;;16.92;9.23;;;;;;;;;;4970003;28;20423;-61
2023/08/05 08:35:14;;;;;;;17.15;8.48;;;;;;;;;;4968793;28;20418;-61
2023/08/05 08:37:40;;;;;;;17.50;8.88;;;;;;;;;;4969177;28;20066;-61
2023/08/05 08:40:07;;;;;;;16.58;9.60;;;;;;;;;;4971657;28;20059;-61
2023/08/05 08:42:34;;;;;;;15.98;8.68;;;;;;;;;;4966975;28;20446;-60
2023/08/05 08:45:00;;;;;;;16.90;8.88;;;;;;;;;;4969845;28;20046;-61
2023/08/05 08:47:27;;;;;;;14.48;8.10;;;;;;;;;;4967459;28;20042;-61
2023/08/05 08:49:54;;;;;;;14.98;8.88;;;;;;;;;;4968451;28;20388;-61
2023/08/05 08:52:21;;;;;;;14.30;8.02;;;;;;;;;;4982459;28;20054;-61
2023/08/05 08:54:50;;;;;;;14.98;9.00;;;;;;;;;;4971206;28;20069;-61
2023/08/05 08:57:16;;;;;;;;;;;;;;;;;;4972036;28;20035;-61
2023/08/05 08:59:43;;;;;;;13.73;8.13;;;;;;;;;;4967560;28;20315;-61
2023/08/05 09:02:12;;;;;;;15.27;7.55;;;;;;;;;;4966593;28;20042;-61
2023/08/05 09:04:44;;;;;;;16.58;9.73;;;;;;;;;;4969590;28;20031;-61
2023/08/05 09:07:11;;;;;;;12.30;7.35;;;;;;;;;;4968946;28;20062;-61
2023/08/05 09:09:37;;;;;;;21.20;8.45;;;;;;;;;;4967637;28;20050;-61
2023/08/05 09:12:03;;;;;;;11.35;8.30;;;;;;;;;;4969826;28;20038;-61
2023/08/05 09:14:29;;;;;;;14.50;8.10;;;;;;;;;;4968271;28;20420;-61
2023/08/05 09:16:59;;;;;;;14.35;7.85;;;;;;;;;;4969610;28;20055;-61
2023/08/05 09:19:29;;;;;;;14.48;8.35;;;;;;;;;;4967746;28;20122;-61
2023/08/05 09:21:56;;;;;;;15.90;7.88;;;;;;;;;;4969629;28;20035;-61
2023/08/05 09:24:25;;;;;;;14.57;7.82;;;;;;;;;;4966504;28;20410;-61
2023/08/05 09:26:55;;;;;;;;;;;;;;;;;;4964320;28;20054;-61
2023/08/05 09:29:22;;;;;;;10.65;7.22;;;;;;;;;;4965888;28;20298;-61
2023/08/05 09:31:57;;;;;;;13.15;8.05;;;;;;;;;;4965257;28;20055;-61
2023/08/05 09:34:37;;;;;;;12.02;7.68;;;;;;;;;;4973309;28;20049;-61
2023/08/05 09:37:05;;;;;;;12.93;7.65;;;;;;;;;;4965892;28;20027;-61
2023/08/05 09:39:51;;;;;;;12.55;7.72;;;;;;;;;;4967254;28;20045;-61
2023/08/05 09:42:24;;;;;;;13.95;7.97;;;;;;;;;;4965968;28;20053;-62
2023/08/05 09:44:53;;;;;;;12.10;7.38;;;;;;;;;;4966521;28;20043;-61
2023/08/05 09:47:24;;;;;;;13.73;7.60;;;;;;;;;;4966772;28;20042;-61
2023/08/05 09:49:51;;;;;;;10.20;6.57;;;;;;;;;;4968829;28;20066;-61
2023/08/05 09:52:20;;;;;;;12.52;7.63;;;;;;;;;;4967162;28;20037;-61
2023/08/05 09:54:58;;;;;;;12.02;6.82;;;;;;;;;;4968087;28;20038;-62
2023/08/05 09:57:25;;;;;;;9.80;6.90;;;;;;;;;;4966552;28;20042;-61
2023/08/05 09:59:58;;;;;;;12.00;7.32;;;;;;;;;;4966877;28;20062;-61
2023/08/05 10:02:29;;;;;;;9.55;6.75;;;;;;;;;;4966952;28;20033;-62
2023/08/05 10:04:56;;;;;;;11.77;7.03;;;;;;;;;;4966831;28;20059;-61
2023/08/05 10:07:24;;;;;;;9.82;7.13;;;;;;;;;;4965876;28;20033;-61
2023/08/05 10:09:51;;;;;;;10.80;6.93;;;;;;;;;;4965084;28;20045;-61
2023/08/05 10:12:21;;;;;;;11.55;6.43;;;;;;;;;;4966803;28;20039;-62
2023/08/05 10:14:48;;;;;;;12.77;6.90;;;;;;;;;;4964533;28;20038;-61
2023/08/05 10:17:16;;;;;;;11.63;6.20;;;;;;;;;;4964414;28;20035;-61
2023/08/05 10:19:47;;;;;;;8.35;6.25;;;;;;;;;;4962165;28;20050;-61
2023/08/05 10:22:21;;;;;;;9.93;7.10;;;;;;;;;;4965509;28;20034;-62
2023/08/05 10:24:56;;;;;;;7.68;6.20;;;;;;;;;;4966315;28;20050;-62
2023/08/05 10:27:34;;;;;;;8.35;5.90;;;;;;;;;;4965108;28;20514;-62
2023/08/05 10:30:09;;;;;;;12.38;6.43;;;;;;;;;;4966342;28;20437;-61
2023/08/05 10:32:48;;;;;;;9.40;6.60;;;;;;;;;;4963941;28;20045;-62
2023/08/05 10:35:40;;;;;;;8.83;6.07;;;;;;;;;;4965298;28;20038;-62
2023/08/05 10:38:07;;;;;;;8.90;5.65;;;;;;;;;;4962967;28;20391;-62
2023/08/05 10:40:49;;;;;;;6.43;5.18;;;;;;;;;;4967201;28;20030;-61
2023/08/05 10:43:26;;;;;;;7.38;5.47;;;;;;;;;;4966620;28;20039;-61
2023/08/05 10:45:52;;;;;;;6.32;5.30;;;;;;;;;;4967763;28;20043;-62
2023/08/05 10:48:19;;;;;;;9.10;5.00;;;;;;;;;;4968838;28;20035;-62
2023/08/05 10:50:48;;;;;;;6.25;5.35;;;;;;;;;;4968233;28;20519;-61
2023/08/05 10:53:14;;;;;;;7.38;5.10;;;;;;;;;;4968363;28;20033;-61
2023/08/05 10:55:48;;;;;;;9.73;5.40;;;;;;;;;;4964071;28;20062;-61
2023/08/05 10:58:15;;;;;;;11.82;4.93;;;;;;;;;;4968583;28;20047;-61
2023/08/05 11:00:42;;;;;;;8.13;5.20;;;;;;;;;;4968177;28;20051;-62
2023/08/05 11:03:27;;;;;;;6.28;4.93;;;;;;;;;;4965028;28;20043;-61
2023/08/05 11:06:00;;;;;;;8.10;4.95;;;;;;;;;;4968739;28;20034;-62
2023/08/05 11:08:26;;;;;;;5.80;5.10;;;;;;;;;;4964659;28;20031;-61
2023/08/05 11:10:53;;;;;;;6.82;5.43;;;;;;;;;;4967418;28;20050;-62
2023/08/05 11:13:19;;;;;;;7.13;4.90;;;;;;;;;;4966459;28;20046;-62
2023/08/05 11:16:01;;;;;;;6.82;4.97;;;;;;;;;;4968102;28;20545;-61
2023/08/05 11:18:28;;;;;;;5.90;4.55;;;;;;;;;;4965371;28;20406;-62
2023/08/05 11:20:55;;;;;;;9.25;4.80;;;;;;;;;;4968427;28;20045;-61
2023/08/05 11:23:23;;;;;;;8.57;5.30;;;;;;;;;;4964434;28;20038;-61
2023/08/05 11:25:50;;;;;;;5.88;4.35;;;;;;;;;;4967097;28;20051;-61
2023/08/05 11:28:16;;;;;;;5.93;4.53;;;;;;;;;;4966943;28;20049;-61
2023/08/05 11:30:43;;;;;;;8.07;4.63;;;;;;;;;;4965597;28;20498;-62
2023/08/05 11:33:09;;;;;;;6.82;4.93;;;;;;;;;;4967215;28;20027;-62
2023/08/05 11:35:45;;;;;;;6.10;4.15;;;;;;;;;;4965206;28;20054;-61
2023/08/05 11:38:15;;;;;;;7.03;4.82;;;;;;;;;;4964584;28;20399;-62
2023/08/05 11:40:43;;;;;;;6.32;5.00;;;;;;;;;;4963441;28;20050;-61
2023/08/05 11:43:10;;;;;;;6.40;4.90;;;;;;;;;;4973176;28;20054;-61
2023/08/05 11:45:40;;;;;;;7.03;5.07;;;;;;;;;;4965080;28;20298;-61
2023/08/05 11:48:19;;;;;;;6.45;4.68;;;;;;;;;;4967933;28;20039;-61
2023/08/05 11:50:46;;;;;;;6.20;4.57;;;;;;;;;;4967036;28;20077;-61
2023/08/05 11:53:16;;;;;;;8.80;5.32;;;;;;;;;;4967929;28;20049;-63
2023/08/05 11:55:42;;;;;;;7.25;4.70;;;;;;;;;;4968800;28;20407;-63
2023/08/05 11:58:10;;;;;;;5.80;4.75;;;;;;;;;;4973480;28;20035;-62
2023/08/05 12:00:41;;;;;;;6.75;4.53;;;;;;;;;;4970260;28;20038;-62
2023/08/05 12:03:07;;;;;;;7.40;4.95;;;;;;;;;;4969048;28;20030;-62
2023/08/05 12:05:33;;;;;;;11.05;5.45;;;;;;;;;;4971757;28;20030;-63
2023/08/05 12:07:59;;;;;;;8.50;5.43;;;;;;;;;;4970844;28;20387;-62
2023/08/05 12:10:27;;;;;;;14.65;9.63;;;;;;;;;;4969825;28;20045;-62
2023/08/05 12:12:53;;;;;;;10.02;6.10;;;;;;;;;;4970675;28;20041;-63
2023/08/05 12:15:26;;;;;;;7.65;4.70;;;;;;;;;;4968053;28;20026;-63
2023/08/05 12:17:59;;;;;;;7.35;4.43;;;;;;;;;;4964985;28;20498;-62
2023/08/05 12:20:29;;;;;;;7.00;4.25;;;;;;;;;;4968978;28;20042;-62
2023/08/05 12:22:58;;;;;;;7.80;4.30;;;;;;;;;;4967743;28;20511;-62
2023/08/05 12:25:25;;;;;;;6.13;4.40;;;;;;;;;;4967993;28;20042;-63
2023/08/05 12:27:52;;;;;;;7.15;4.93;;;;;;;;;;4967290;28;20041;-62
2023/08/05 12:30:18;;;;;;;7.10;4.35;;;;;;;;;;4971612;28;20047;-62
2023/08/05 12:32:44;;;;;;;8.73;4.53;;;;;;;;;;4967564;28;20050;-62
2023/08/05 12:35:11;;;;;;;5.88;4.63;;;;;;;;;;4973313;28;20035;-63
2023/08/05 12:37:39;;;;;;;6.82;4.30;;;;;;;;;;4971221;28;20667;-62
2023/08/05 12:40:07;;;;;;;8.32;3.50;;;;;;;;;;4968551;28;20057;-62
2023/08/05 12:42:34;;;;;;;5.10;3.50;;;;;;;;;;4966871;28;20043;-63
2023/08/05 12:45:03;;;;;;;5.78;3.63;;;;;;;;;;4969074;28;20034;-62
2023/08/05 12:47:30;;;;;;;3.90;3.30;;;;;;;;;;4969342;28;20039;-63
2023/08/05 12:49:56;;;;;;;6.75;4.28;;;;;;;;;;4973049;28;20094;-63
2023/08/05 12:52:22;;;;;;;8.93;4.82;;;;;;;;;;4969496;28;20045;-62
2023/08/05 12:54:49;;;;;;;8.98;6.20;;;;;;;;;;4969285;28;20050;-63
2023/08/05 12:57:15;;;;;;;5.65;3.50;;;;;;;;;;4970551;28;20054;-63
2023/08/05 12:59:41;;;;;;;6.78;4.15;;;;;;;;;;4969749;28;20034;-63
2023/08/05 13:02:07;;;;;;;13.57;7.35;;;;;;;;;;4969478;28;20030;-63
2023/08/05 13:04:34;;;;;;;10.55;4.75;;;;;;;;;;4967811;28;20402;-63
2023/08/05 13:07:00;;;;;;;9.13;5.97;;;;;;;;;;4968673;28;20042;-63
2023/08/05 13:09:26;;;;;;;11.13;4.93;;;;;;;;;;4968215;28;20051;-62
2023/08/05 13:11:52;;;;;;;4.90;3.88;;;;;;;;;;4972700;28;20049;-62
2023/08/05 13:14:19;;;;;;;3.22;2.90;;;;;;;;;;4969735;28;20051;-63
2023/08/05 13:16:45;;;;;;;5.50;3.30;;;;;;;;;;4968911;28;20387;-63
2023/08/05 13:19:11;;;;;;;5.70;3.25;;;;;;;;;;4969458;28;20035;-63
2023/08/05 13:21:37;;;;;;;5.05;3.20;;;;;;;;;;4967690;28;20042;-63
2023/08/05 13:24:03;;;;;;;6.22;3.55;;;;;;;;;;4968052;28;20023;-63
2023/08/05 13:26:30;;;;;;;4.25;2.90;;;;;;;;;;4967441;28;20039;-63
2023/08/05 13:28:57;;;;;;;4.88;3.53;;;;;;;;;;4969670;28;20038;-62
2023/08/05 13:31:26;;;;;;;3.63;3.28;;;;;;;;;;4966740;28;20034;-62
2023/08/05 13:33:53;;;;;;;4.38;3.30;;;;;;;;;;4966947;28;20047;-63
2023/08/05 13:36:19;;;;;;;4.90;3.30;;;;;;;;;;4969644;28;20036;-62
2023/08/05 13:38:46;;;;;;;5.57;3.75;;;;;;;;;;4969807;28;20050;-63
2023/08/05 13:41:16;;;;;;;6.25;3.38;;;;;;;;;;4968815;28;20042;-63
2023/08/05 13:43:42;;;;;;;3.70;3.35;;;;;;;;;;4965639;28;20510;-63
2023/08/05 13:46:09;;;;;;;6.10;2.78;;;;;;;;;;4966438;28;20043;-63
2023/08/05 13:48:37;;;;;;;4.65;2.70;;;;;;;;;;4967989;28;20387;-62
2023/08/05 13:51:06;;;;;;;3.17;2.87;;;;;;;;;;4970780;28;20072;-63
2023/08/05 13:53:32;;;;;;;4.07;2.78;;;;;;;;;;4967608;28;20047;-63
2023/08/05 13:56:00;;;;;;;2.95;2.55;;;;;;;;;;4968171;28;20043;-62
2023/08/05 13:58:26;;;;;;;3.08;2.78;;;;;;;;;;4969292;28;20375;-62
2023/08/05 14:00:54;;;;;;;3.97;2.95;;;;;;;;;;4967946;28;20403;-63
2023/08/05 14:03:21;;;;;;;3.60;2.80;;;;;;;;;;4964034;28;20055;-63
2023/08/05 14:05:51;;;;;;;4.40;2.92;;;;;;;;;;4967689;28;20058;-61
2023/08/05 14:08:17;;;;;;;3.80;3.00;;;;;;;;;;4968011;28;20042;-62
2023/08/05 14:10:49;;;;;;;4.38;2.63;;;;;;;;;;4967321;28;20721;-62
2023/08/05 14:13:15;;;;;;;3.25;2.95;;;;;;;;;;4964902;28;20038;-63
2023/08/05 14:15:41;;;;;;;5.00;2.80;;;;;;;;;;4966209;28;20518;-62
2023/08/05 14:18:07;;;;;;;3.17;2.65;;;;;;;;;;4966495;28;20045;-62
2023/08/05 14:20:34;;;;;;;2.97;2.67;;;;;;;;;;4964978;28;20449;-62
2023/08/05 14:23:00;;;;;;;3.75;2.83;;;;;;;;;;4964763;28;20442;-62
2023/08/05 14:25:26;;;;;;;3.67;2.80;;;;;;;;;;4966772;28;20041;-62
2023/08/05 14:27:52;;;;;;;4.15;3.35;;;;;;;;;;4966537;28;20557;-62
2023/08/05 14:30:18;;;;;;;4.03;2.97;;;;;;;;;;4971096;28;20039;-62
2023/08/05 14:32:45;;;;;;;3.63;3.08;;;;;;;;;;4966935;28;20498;-62
2023/08/05 14:35:11;;;;;;;3.63;2.75;;;;;;;;;;4969070;28;20026;-62